KDCU/DCU METAR and TAF weather

Enter ICAO airport designator
Station Type Date Time Source
KDCU METAR 2019/07/17 13:28 UTC NOAA

KDCU 171328Z AUTO 24007KT 3SM RA BR BKN012 BKN017 OVC049 23/23 A3012 RMK AO2 LTG DSNT W P0009 T02330228 $


Station Type Date Time Source
KDCU Decoded METAR 2019/07/17 13:28 UTC NOAA

PRYOR FIELD, AL, United States (KDCU) 34-39N 086-57W 176M
Jul 17, 2019 - 09:28 AM EDT / 2019.07.17 1328 UTC
Wind: from the WSW (240 degrees) at 8 MPH (7 KT):0
Visibility: 3 mile(s):0
Sky conditions: overcast
Weather: rain; mist; Lightning observed
Precipitation last hour: 0.09 inches
Temperature: 73.9 F (23.3 C)
Dew Point: 73.0 F (22.8 C)
Relative Humidity: 97%
Pressure (altimeter): 30.12 in. Hg (1019 hPa)
ob: KDCU 171328Z AUTO 24007KT 3SM RA BR BKN012 BKN017 OVC049 23/23 A3012 RMK AO2 LTG DSNT W P0009 T02330228
cycle: 13

Station Type Date Time Source
KDCU TAF UTC NOAA

Error!

Example: see airport list